Time;durP1;ratioP1;P1;durP2;ratioP2;P2;SDS_P1;SDS_P2;PMS_P1;PMS_P2;Temp;Humidity;BMP_temperature;BMP_pressure;BME280_temperature;BME280_humidity;BME280_pressure;Samples;Min_cycle;Max_cycle;Signal;HPM_P1;HPM_P2
2022/08/19 00:01:24;;;;;;;6.53;6.03;;;24.60;47.10;;;;;;5053606;28;20461;-72
2022/08/19 00:03:50;;;;;;;6.77;6.47;;;24.60;47.20;;;;;;5053905;28;20465;-66
2022/08/19 00:06:16;;;;;;;6.63;6.33;;;24.60;47.20;;;;;;5057060;28;20458;-74
2022/08/19 00:08:43;;;;;;;7.27;6.87;;;24.60;47.20;;;;;;5051605;28;20304;-66
2022/08/19 00:11:09;;;;;;;7.30;6.90;;;24.60;47.20;;;;;;5058885;28;20472;-65
2022/08/19 00:13:35;;;;;;;6.93;6.57;;;24.60;47.20;;;;;;5054565;28;20462;-70
2022/08/19 00:16:01;;;;;;;7.37;6.87;;;24.60;47.20;;;;;;5057842;28;20466;-67
2022/08/19 00:18:27;;;;;;;7.20;6.80;;;24.60;47.20;;;;;;5057971;28;20229;-66
2022/08/19 00:20:53;;;;;;;7.53;7.13;;;24.60;47.20;;;;;;5057848;28;20817;-68
2022/08/19 00:23:18;;;;;;;7.87;7.47;;;24.60;47.20;;;;;;5053078;28;20455;-72
2022/08/19 00:25:45;;;;;;;7.90;7.20;;;24.60;47.20;;;;;;5057583;28;20217;-67
2022/08/19 00:28:10;;;;;;;7.57;7.07;;;24.60;47.20;;;;;;5056582;28;20256;-69
2022/08/19 00:30:36;;;;;;;6.97;6.63;;;24.60;47.20;;;;;;5056655;28;20919;-66
2022/08/19 00:33:02;;;;;;;8.07;7.47;;;24.60;47.20;;;;;;5057234;28;20220;-70
2022/08/19 00:35:28;;;;;;;7.70;7.30;;;24.60;47.30;;;;;;5054506;28;20466;-65
2022/08/19 00:37:54;;;;;;;7.10;6.70;;;24.60;47.20;;;;;;5058485;28;20452;-73
2022/08/19 00:40:20;;;;;;;6.33;6.03;;;24.60;47.20;;;;;;5062821;28;20236;-66
2022/08/19 00:42:47;;;;;;;7.33;7.00;;;24.60;47.20;;;;;;5061192;28;20214;-77
2022/08/19 00:45:20;;;;;;;7.13;6.73;;;24.60;47.20;;;;;;5061510;28;20454;-75
2022/08/19 00:47:45;;;;;;;7.10;6.70;;;24.60;47.20;;;;;;5059382;28;20469;-69
2022/08/19 00:50:14;;;;;;;8.37;7.77;;;24.60;47.20;;;;;;5057498;28;20504;-67
2022/08/19 00:52:44;;;;;;;8.10;7.63;;;24.60;47.30;;;;;;5055981;28;20224;-70
2022/08/19 00:55:15;;;;;;;8.20;7.70;;;24.60;47.20;;;;;;5060766;28;20453;-69
2022/08/19 00:57:45;;;;;;;7.73;7.23;;;24.60;47.20;;;;;;5059415;28;21219;-70
2022/08/19 01:00:16;;;;;;;7.57;6.87;;;24.60;47.20;;;;;;5058158;28;20480;-67
2022/08/19 01:02:42;;;;;;;7.70;7.30;;;24.60;47.20;;;;;;5057713;28;20449;-66
2022/08/19 01:05:19;;;;;;;7.90;7.50;;;24.60;47.20;;;;;;5055370;28;20434;-66
2022/08/19 01:07:45;;;;;;;8.03;7.53;;;24.60;47.20;;;;;;5058056;28;20217;-74
2022/08/19 01:10:18;;;;;;;7.43;6.80;;;24.60;47.20;;;;;;5058394;28;20476;-69
2022/08/19 01:12:45;;;;;;;8.00;7.50;;;24.60;47.20;;;;;;5057469;28;20282;-74
2022/08/19 01:15:14;;;;;;;7.53;7.13;;;24.60;47.20;;;;;;5051031;28;20532;-72
2022/08/19 01:17:41;;;;;;;8.87;8.33;;;24.60;47.20;;;;;;5060583;28;20442;-66
2022/08/19 01:20:14;;;;;;;8.00;7.57;;;24.60;47.20;;;;;;5054742;28;20474;-66
2022/08/19 01:22:48;;;;;;;8.73;8.10;;;24.60;47.20;;;;;;5055838;28;20950;-65
2022/08/19 01:25:17;;;;;;;7.87;7.47;;;24.60;47.10;;;;;;5054319;28;20472;-66
2022/08/19 01:27:45;;;;;;;7.87;7.37;;;24.60;47.20;;;;;;5054671;28;20468;-70
2022/08/19 01:30:14;;;;;;;7.67;7.20;;;24.60;47.10;;;;;;5054540;28;20482;-69
2022/08/19 01:32:39;;;;;;;8.50;8.00;;;24.60;47.20;;;;;;5057928;28;20485;-66
2022/08/19 01:35:05;;;;;;;7.57;7.10;;;24.60;47.10;;;;;;5054077;28;20573;-66
2022/08/19 01:37:46;;;;;;;8.73;8.23;;;24.60;47.20;;;;;;5056770;28;21013;-69
2022/08/19 01:40:12;;;;;;;8.37;7.77;;;24.60;47.10;;;;;;5055141;28;20298;-71
2022/08/19 01:42:38;;;;;;;8.30;7.90;;;24.60;47.20;;;;;;5056847;28;20458;-66
2022/08/19 01:45:07;;;;;;;7.20;6.80;;;24.60;47.10;;;;;;5052976;28;20237;-72
2022/08/19 01:47:35;;;;;;;8.80;8.20;;;24.60;47.20;;;;;;5056792;28;20469;-67
2022/08/19 01:50:00;;;;;;;7.80;7.40;;;24.60;47.10;;;;;;5054029;28;20975;-66
2022/08/19 01:52:27;;;;;;;8.70;8.20;;;24.60;47.20;;;;;;5055882;28;20455;-68
2022/08/19 01:54:53;;;;;;;8.90;8.30;;;24.60;47.20;;;;;;5057080;28;20686;-71
2022/08/19 01:57:18;;;;;;;7.67;7.27;;;24.60;47.10;;;;;;5057881;28;20439;-66
2022/08/19 01:59:45;;;;;;;8.07;7.67;;;24.60;47.20;;;;;;5057076;28;20245;-67
2022/08/19 02:02:10;;;;;;;8.63;8.13;;;24.60;47.20;;;;;;5054771;28;20567;-66
2022/08/19 02:04:39;;;;;;;9.27;8.60;;;24.60;47.20;;;;;;5054993;28;20462;-68
2022/08/19 02:07:07;;;;;;;8.47;7.97;;;24.60;47.10;;;;;;5053689;28;20233;-66
2022/08/19 02:09:33;;;;;;;9.47;8.87;;;24.60;47.20;;;;;;5047148;28;20470;-70
2022/08/19 02:11:59;;;;;;;9.03;8.43;;;24.60;47.20;;;;;;5052451;28;20481;-68
2022/08/19 02:14:24;;;;;;;9.43;8.83;;;24.60;47.20;;;;;;5055667;28;20217;-65
2022/08/19 02:16:50;;;;;;;9.13;8.37;;;24.60;47.20;;;;;;5064799;28;20305;-68
2022/08/19 02:19:16;;;;;;;9.10;8.53;;;24.60;47.10;;;;;;5056074;28;20225;-65
2022/08/19 02:21:43;;;;;;;9.10;8.40;;;24.60;47.10;;;;;;5056268;28;20228;-67
2022/08/19 02:24:09;;;;;;;9.33;8.53;;;24.60;47.10;;;;;;5057563;28;20251;-66
2022/08/19 02:26:34;;;;;;;9.13;8.57;;;24.60;47.10;;;;;;5056402;28;20463;-67
2022/08/19 02:29:00;;;;;;;8.77;8.27;;;24.50;47.10;;;;;;5055829;28;20220;-66
2022/08/19 02:31:27;;;;;;;8.60;8.10;;;24.60;47.10;;;;;;5053925;28;20226;-71
2022/08/19 02:33:55;;;;;;;8.43;7.93;;;24.60;47.20;;;;;;5059288;28;20217;-73
2022/08/19 02:36:21;;;;;;;9.20;8.60;;;24.60;47.20;;;;;;5056138;28;20450;-66
2022/08/19 02:38:46;;;;;;;9.23;8.50;;;24.50;47.10;;;;;;5057384;28;20455;-66
2022/08/19 02:41:31;;;;;;;8.40;7.80;;;24.60;47.10;;;;;;5055301;28;20236;-65
2022/08/19 02:43:58;;;;;;;8.87;8.30;;;24.60;47.10;;;;;;5052298;28;20782;-67
2022/08/19 02:46:28;;;;;;;8.30;7.80;;;24.50;47.10;;;;;;5051939;28;20451;-69
2022/08/19 02:48:57;;;;;;;9.40;8.80;;;24.50;47.00;;;;;;5055325;28;20446;-69
2022/08/19 02:51:32;;;;;;;10.17;8.77;;;24.50;47.10;;;;;;5058477;28;20450;-69
2022/08/19 02:53:58;;;;;;;10.40;9.70;;;24.50;47.00;;;;;;5057153;28;20453;-72
2022/08/19 02:56:24;;;;;;;9.23;8.63;;;24.50;47.10;;;;;;5059777;28;20460;-77
2022/08/19 02:58:50;;;;;;;8.63;8.13;;;24.50;47.00;;;;;;5059729;28;21056;-65
2022/08/19 03:01:28;;;;;;;9.33;8.73;;;24.50;47.00;;;;;;5056788;28;20465;-65
2022/08/19 03:03:59;;;;;;;10.30;9.60;;;24.50;47.10;;;;;;5058436;28;20236;-68
2022/08/19 03:06:25;;;;;;;9.30;8.70;;;24.50;47.10;;;;;;5060516;28;20908;-76
2022/08/19 03:08:51;;;;;;;9.80;9.03;;;24.50;47.00;;;;;;5055090;28;20454;-66
2022/08/19 03:11:25;;;;;;;10.03;9.33;;;24.50;47.00;;;;;;5064822;28;20461;-65
2022/08/19 03:13:51;;;;;;;9.97;9.27;;;24.50;47.00;;;;;;5060965;28;20224;-65
2022/08/19 03:16:18;;;;;;;9.60;8.90;;;24.50;47.00;;;;;;5057348;28;21114;-67
2022/08/19 03:18:44;;;;;;;9.23;8.60;;;24.50;47.10;;;;;;5053681;28;20502;-66
2022/08/19 03:21:14;;;;;;;9.27;8.67;;;24.50;47.00;;;;;;5057761;28;20520;-69
2022/08/19 03:23:39;;;;;;;9.57;8.90;;;24.50;47.00;;;;;;5059043;28;20484;-68
2022/08/19 03:26:05;;;;;;;10.50;9.77;;;24.50;47.10;;;;;;5059232;28;21055;-71
2022/08/19 03:28:32;;;;;;;9.40;8.70;;;24.50;47.00;;;;;;5058744;28;20322;-66
2022/08/19 03:31:01;;;;;;;9.53;8.83;;;24.60;47.10;;;;;;5059347;28;20582;-65
2022/08/19 03:33:29;;;;;;;10.00;9.40;;;24.50;47.00;;;;;;5057687;28;20441;-67
2022/08/19 03:36:10;;;;;;;9.37;8.77;;;24.50;47.00;;;;;;5061672;28;20446;-65
2022/08/19 03:38:39;;;;;;;10.30;9.50;;;24.50;47.00;;;;;;5058037;28;20470;-69
2022/08/19 03:41:07;;;;;;;10.97;10.27;;;24.50;47.10;;;;;;5059343;28;20485;-65
2022/08/19 03:43:38;;;;;;;10.00;9.40;;;24.50;47.00;;;;;;5055468;28;20459;-66
2022/08/19 03:46:08;;;;;;;10.80;10.00;;;24.50;47.00;;;;;;5049238;28;20819;-67
2022/08/19 03:48:34;;;;;;;10.10;9.40;;;24.50;47.10;;;;;;5053244;28;20489;-67
2022/08/19 03:51:00;;;;;;;9.77;9.07;;;24.50;47.10;;;;;;5059568;28;20446;-65
2022/08/19 03:53:28;;;;;;;9.23;8.63;;;24.50;47.10;;;;;;5054302;28;20964;-70
2022/08/19 03:55:54;;;;;;;8.40;7.90;;;24.50;47.10;;;;;;5060240;28;20664;-65
2022/08/19 03:58:21;;;;;;;8.20;7.70;;;24.50;47.10;;;;;;5059061;28;20848;-67
2022/08/19 04:00:47;;;;;;;8.53;8.00;;;24.50;47.20;;;;;;5060725;28;20649;-66
2022/08/19 04:03:13;;;;;;;8.10;7.53;;;24.50;47.10;;;;;;5051131;28;20447;-68
2022/08/19 04:05:38;;;;;;;7.53;7.03;;;24.50;47.10;;;;;;5055694;28;20672;-66
2022/08/19 04:08:05;;;;;;;7.50;7.00;;;24.50;47.10;;;;;;5053343;28;20228;-66
2022/08/19 04:10:37;;;;;;;7.67;7.17;;;24.50;47.10;;;;;;5053429;28;20674;-69
2022/08/19 04:13:05;;;;;;;8.47;7.97;;;24.50;47.20;;;;;;5056066;28;20459;-65
2022/08/19 04:15:38;;;;;;;7.57;7.10;;;24.50;47.20;;;;;;5054869;28;20503;-68
2022/08/19 04:18:05;;;;;;;7.60;7.20;;;24.50;47.20;;;;;;5052173;28;20458;-65
2022/08/19 04:20:31;;;;;;;7.87;7.37;;;24.50;47.20;;;;;;5058509;28;20473;-65
2022/08/19 04:22:57;;;;;;;7.60;7.20;;;24.50;47.20;;;;;;5057130;28;20450;-71
2022/08/19 04:25:22;;;;;;;6.77;6.37;;;24.50;47.20;;;;;;5054527;28;20225;-66
2022/08/19 04:27:48;;;;;;;7.90;7.40;;;24.50;47.20;;;;;;5054861;28;20308;-65
2022/08/19 04:30:14;;;;;;;7.90;7.40;;;24.50;47.20;;;;;;5054376;28;20668;-66
2022/08/19 04:32:43;;;;;;;7.00;6.60;;;24.50;47.20;;;;;;5054761;28;20470;-69
2022/08/19 04:35:09;;;;;;;7.20;6.80;;;24.50;47.20;;;;;;5055778;28;20283;-66
2022/08/19 04:37:34;;;;;;;7.67;7.20;;;24.50;47.20;;;;;;5050422;28;20454;-68
2022/08/19 04:42:44;;;;;;;6.93;6.63;;;24.50;47.20;;;;;;5055228;28;20236;-68
2022/08/19 04:45:13;;;;;;;7.20;6.70;;;24.50;47.90;;;;;;5053920;28;20453;-68
2022/08/19 04:47:42;;;;;;;7.93;7.43;;;24.50;47.20;;;;;;5050699;28;20217;-68
2022/08/19 04:50:11;;;;;;;8.20;7.70;;;24.50;47.10;;;;;;5053632;28;21006;-69
2022/08/19 04:52:39;;;;;;;7.80;7.40;;;24.50;47.10;;;;;;5052122;28;20466;-74
2022/08/19 04:55:06;;;;;;;6.50;6.20;;;24.50;47.20;;;;;;5050450;28;20463;-72
2022/08/19 04:57:31;;;;;;;7.37;6.97;;;24.50;47.10;;;;;;5048202;28;20462;-70
2022/08/19 04:59:57;;;;;;;6.70;6.30;;;24.50;47.20;;;;;;5053545;28;20475;-70
2022/08/19 05:02:24;;;;;;;7.47;7.07;;;24.50;47.20;;;;;;5041677;28;20249;-69
2022/08/19 05:04:55;;;;;;;7.00;6.60;;;24.50;47.10;;;;;;5038900;28;20228;-70
2022/08/19 05:07:21;;;;;;;7.47;7.07;;;24.50;47.20;;;;;;5049388;28;20474;-70
2022/08/19 05:09:46;;;;;;;6.93;6.53;;;24.50;47.10;;;;;;5042306;28;21130;-70
2022/08/19 05:12:12;;;;;;;7.00;6.60;;;24.50;47.10;;;;;;5044430;28;20263;-69
2022/08/19 05:14:38;;;;;;;6.70;6.37;;;24.50;47.10;;;;;;5049935;28;20271;-70
2022/08/19 05:17:03;;;;;;;6.70;6.30;;;24.50;47.10;;;;;;5041645;28;20221;-70
2022/08/19 05:22:32;;;;;;;6.80;6.40;;;24.50;47.10;;;;;;5052882;28;20270;-68
2022/08/19 05:24:58;;;;;;;7.23;6.80;;;24.50;47.20;;;;;;5042516;28;20492;-82
2022/08/19 05:27:24;;;;;;;7.30;6.80;;;24.50;48.00;;;;;;5036932;28;20489;-69
2022/08/19 05:29:49;;;;;;;7.87;7.37;;;24.50;47.10;;;;;;5050681;28;20628;-75
2022/08/19 05:32:15;;;;;;;6.30;6.00;;;24.50;47.20;;;;;;5045969;28;20222;-69
2022/08/19 05:34:41;;;;;;;6.70;6.33;;;24.50;47.20;;;;;;5056395;28;20576;-71
2022/08/19 05:37:08;;;;;;;6.80;6.40;;;24.50;47.10;;;;;;5056291;28;20232;-69
2022/08/19 05:39:35;;;;;;;6.40;6.10;;;24.50;47.20;;;;;;5057128;28;20237;-68
2022/08/19 05:42:06;;;;;;;7.37;6.93;;;24.50;47.20;;;;;;5057694;28;20467;-69
2022/08/19 05:44:34;;;;;;;7.17;6.70;;;24.50;47.10;;;;;;5054833;28;20442;-72
2022/08/19 05:47:01;;;;;;;7.80;7.20;;;24.50;47.10;;;;;;5056837;28;20458;-71
2022/08/19 05:49:28;;;;;;;6.80;6.50;;;24.50;47.10;;;;;;5055243;28;20442;-68
2022/08/19 05:51:55;;;;;;;6.87;6.47;;;24.50;47.10;;;;;;5055675;28;20936;-68
2022/08/19 05:54:22;;;;;;;6.90;6.50;;;24.50;47.10;;;;;;5058879;28;20468;-72
2022/08/19 05:56:49;;;;;;;6.90;6.50;;;24.50;47.20;;;;;;5054438;28;20451;-70
2022/08/19 05:59:16;;;;;;;6.23;5.90;;;24.50;47.20;;;;;;5054365;28;20465;-71
2022/08/19 06:01:45;;;;;;;7.23;6.83;;;24.50;47.20;;;;;;5053387;28;20461;-70
2022/08/19 06:04:13;;;;;;;6.40;6.10;;;24.50;47.20;;;;;;5060862;28;20447;-68
2022/08/19 06:06:39;;;;;;;6.30;5.90;;;24.50;47.10;;;;;;5062189;28;21271;-71
2022/08/19 06:09:07;;;;;;;6.93;6.33;;;24.50;47.20;;;;;;5037119;28;20522;-70
2022/08/19 06:11:43;;;;;;;6.57;6.20;;;24.50;47.20;;;;;;5039003;28;20463;-69
2022/08/19 06:14:11;;;;;;;6.73;6.27;;;24.50;47.20;;;;;;5045448;28;20456;-70
2022/08/19 06:16:39;;;;;;;6.13;5.83;;;24.50;47.20;;;;;;5044600;28;20476;-68
2022/08/19 06:19:08;;;;;;;6.53;6.13;;;24.50;47.20;;;;;;5048108;28;20528;-69
2022/08/19 06:21:36;;;;;;;6.90;6.50;;;24.50;47.20;;;;;;5048595;28;20500;-68
2022/08/19 06:24:07;;;;;;;6.50;6.20;;;24.50;47.20;;;;;;5042928;28;20497;-70
2022/08/19 06:26:38;;;;;;;6.67;6.30;;;24.50;47.30;;;;;;5046575;28;20449;-66
2022/08/19 06:29:06;;;;;;;6.53;6.20;;;24.50;47.20;;;;;;5048230;28;20457;-65
2022/08/19 06:31:33;;;;;;;6.30;6.00;;;24.50;47.30;;;;;;5048939;28;20508;-65
2022/08/19 06:34:02;;;;;;;6.37;5.93;;;24.60;47.30;;;;;;5054126;28;20455;-68
2022/08/19 06:36:33;;;;;;;6.00;5.70;;;24.50;47.30;;;;;;5047594;28;20582;-67
2022/08/19 06:39:01;;;;;;;5.70;5.40;;;24.50;47.40;;;;;;5046604;28;20458;-70
2022/08/19 06:41:28;;;;;;;6.90;6.30;;;24.50;47.30;;;;;;5047656;28;20557;-65
2022/08/19 06:43:54;;;;;;;5.20;4.87;;;24.50;47.30;;;;;;5048236;28;20450;-70
2022/08/19 06:46:20;;;;;;;6.00;5.60;;;24.50;47.30;;;;;;5046064;28;20465;-66
2022/08/19 06:48:47;;;;;;;5.83;5.53;;;24.50;47.30;;;;;;5046796;28;20545;-65
2022/08/19 06:51:18;;;;;;;6.37;6.07;;;24.50;47.30;;;;;;5054508;28;20452;-65
2022/08/19 06:53:47;;;;;;;6.63;6.23;;;24.50;47.40;;;;;;5045910;28;20454;-67
2022/08/19 06:56:22;;;;;;;6.80;6.40;;;24.50;47.30;;;;;;5054290;28;20450;-65
2022/08/19 06:58:52;;;;;;;7.30;6.70;;;24.50;47.30;;;;;;5041830;28;20904;-67
2022/08/19 07:01:20;;;;;;;7.50;7.10;;;24.50;47.40;;;;;;5043490;28;20575;-67
2022/08/19 07:03:46;;;;;;;6.73;6.33;;;24.50;47.40;;;;;;5045692;28;21119;-66
2022/08/19 07:06:17;;;;;;;6.63;6.27;;;24.50;47.70;;;;;;5048436;28;20475;-66
2022/08/19 07:08:43;;;;;;;7.00;6.60;;;24.50;47.40;;;;;;5048855;28;20471;-65
2022/08/19 07:11:12;;;;;;;6.60;6.30;;;24.50;47.40;;;;;;5055579;28;20469;-65
2022/08/19 07:13:38;;;;;;;6.87;6.47;;;24.50;47.40;;;;;;5042319;28;20450;-64
2022/08/19 07:16:08;;;;;;;6.80;6.40;;;24.50;47.40;;;;;;5044523;28;20450;-65
2022/08/19 07:18:34;;;;;;;7.97;7.47;;;24.50;47.40;;;;;;5046911;28;20461;-66
2022/08/19 07:21:05;;;;;;;7.03;6.53;;;24.50;47.40;;;;;;5052384;28;20478;-66
2022/08/19 07:23:32;;;;;;;6.80;6.50;;;24.50;47.40;;;;;;5048749;28;20467;-70
2022/08/19 07:25:58;;;;;;;7.27;6.87;;;24.50;47.50;;;;;;5047456;28;20960;-68
2022/08/19 07:28:24;;;;;;;7.57;7.07;;;24.50;47.50;;;;;;5049136;28;20450;-69
2022/08/19 07:30:49;;;;;;;7.03;6.50;;;24.50;47.40;;;;;;5048418;28;21444;-65
2022/08/19 07:33:17;;;;;;;6.63;6.33;;;24.50;47.50;;;;;;5048272;28;21079;-69
2022/08/19 07:35:43;;;;;;;7.53;7.07;;;24.60;47.50;;;;;;5054746;28;20270;-64
2022/08/19 07:38:10;;;;;;;7.53;7.03;;;24.50;47.50;;;;;;5052620;28;20808;-65
2022/08/19 07:40:35;;;;;;;7.17;6.70;;;24.60;47.50;;;;;;5050266;28;20225;-65
2022/08/19 07:43:01;;;;;;;7.93;7.40;;;24.60;47.60;;;;;;5050632;28;20811;-65
2022/08/19 07:45:28;;;;;;;6.87;6.43;;;24.60;47.60;;;;;;5043995;28;20225;-64
2022/08/19 07:47:54;;;;;;;7.00;6.50;;;24.60;47.60;;;;;;5050912;28;20311;-64
2022/08/19 07:50:20;;;;;;;7.07;6.47;;;24.60;47.70;;;;;;5050447;28;20442;-69
2022/08/19 07:52:46;;;;;;;7.47;6.97;;;24.60;47.70;;;;;;5048107;28;20241;-66
2022/08/19 07:55:12;;;;;;;7.63;7.13;;;24.60;47.70;;;;;;5050525;28;20446;-67
2022/08/19 07:57:38;;;;;;;8.17;7.60;;;24.60;47.60;;;;;;5049857;28;20224;-65
2022/08/19 08:00:06;;;;;;;8.93;8.10;;;24.60;47.60;;;;;;5050789;28;20478;-64
2022/08/19 08:02:31;;;;;;;7.70;7.20;;;24.60;47.60;;;;;;5048131;28;20231;-67
2022/08/19 08:10:26;;;;;;;7.90;7.40;;;24.50;47.50;;;;;;5047796;28;20540;-64
2022/08/19 08:12:52;;;;;;;8.90;8.30;;;24.50;47.60;;;;;;5049779;28;20459;-65
2022/08/19 08:15:18;;;;;;;8.30;7.70;;;24.60;47.70;;;;;;5054435;28;20265;-65
2022/08/19 08:17:44;;;;;;;8.43;7.83;;;24.50;47.60;;;;;;5050139;28;20462;-68
2022/08/19 08:20:11;;;;;;;8.60;8.00;;;24.60;47.70;;;;;;5050813;28;20244;-64
2022/08/19 08:25:23;;;;;;;9.70;9.00;;;24.60;47.70;;;;;;5052160;28;20477;-65
2022/08/19 08:27:49;;;;;;;9.77;8.87;;;24.50;47.60;;;;;;5055836;28;20462;-70
2022/08/19 08:30:24;;;;;;;10.20;9.30;;;24.60;47.70;;;;;;5049624;28;20570;-66
2022/08/19 08:32:51;;;;;;;9.73;9.03;;;24.60;48.00;;;;;;5046815;28;20608;-65
2022/08/19 08:35:20;;;;;;;10.77;9.30;;;24.50;47.70;;;;;;5045430;28;20535;-65
2022/08/19 08:37:47;;;;;;;10.47;9.57;;;24.60;47.70;;;;;;5051655;28;20520;-68
2022/08/19 08:40:28;;;;;;;9.97;9.20;;;24.50;47.70;;;;;;5046460;28;20467;-64
2022/08/19 08:43:09;;;;;;;8.30;7.70;;;24.50;47.60;;;;;;5051004;28;20458;-64
2022/08/19 08:45:53;;;;;;;9.83;9.13;;;24.60;47.80;;;;;;5047514;28;20473;-68
2022/08/19 08:48:39;;;;;;;9.20;8.50;;;24.50;47.70;;;;;;5048935;28;20469;-63
2022/08/19 08:51:11;;;;;;;8.67;8.07;;;24.50;47.70;;;;;;5047542;28;20473;-65
2022/08/19 08:53:38;;;;;;;9.67;8.80;;;24.50;47.70;;;;;;5047555;28;20554;-69
2022/08/19 08:56:05;;;;;;;10.10;9.30;;;24.50;47.70;;;;;;5051731;28;20462;-67
2022/08/19 08:59:32;;;;;;;10.40;9.50;;;24.50;47.70;;;;;;5053584;28;20493;-65
2022/08/19 09:01:58;;;;;;;10.50;9.70;;;24.50;47.60;;;;;;4981746;28;20897;-71
2022/08/19 09:04:24;;;;;;;10.23;9.40;;;24.50;47.70;;;;;;5021446;28;20458;-68
2022/08/19 09:07:15;;;;;;;9.00;8.40;;;24.50;47.70;;;;;;5029769;28;20463;-66
2022/08/19 09:09:44;;;;;;;8.10;7.70;;;24.50;47.70;;;;;;5027799;28;20922;-71
2022/08/19 09:12:31;;;;;;;9.30;8.60;;;24.50;47.70;;;;;;5026827;28;20506;-64
2022/08/19 09:15:01;;;;;;;9.87;9.17;;;24.50;47.70;;;;;;5018550;28;20487;-66
2022/08/19 09:17:33;;;;;;;9.90;9.10;;;24.50;47.70;;;;;;5024554;28;20470;-65
2022/08/19 09:20:09;;;;;;;9.40;8.80;;;24.50;47.80;;;;;;5025297;28;20854;-65
2022/08/19 09:22:40;;;;;;;9.30;8.40;;;24.50;47.80;;;;;;5025664;28;20463;-68
2022/08/19 09:25:08;;;;;;;8.43;7.83;;;24.50;47.80;;;;;;5026232;28;21546;-66
2022/08/19 09:27:38;;;;;;;9.10;8.43;;;24.50;47.80;;;;;;5028073;28;20463;-68
2022/08/19 09:30:05;;;;;;;8.83;8.13;;;24.50;47.80;;;;;;5029460;28;21164;-65
2022/08/19 09:32:30;;;;;;;9.20;8.50;;;24.50;47.70;;;;;;5028983;28;20541;-68
2022/08/19 09:34:57;;;;;;;8.20;7.53;;;24.50;47.80;;;;;;5023696;28;20813;-69
2022/08/19 09:37:24;;;;;;;8.73;8.13;;;24.50;47.80;;;;;;5022073;28;20224;-64
2022/08/19 09:39:49;;;;;;;8.73;8.13;;;24.50;47.70;;;;;;5035274;28;20481;-65
2022/08/19 09:42:15;;;;;;;9.63;8.93;;;24.50;47.70;;;;;;5033332;28;20446;-64
2022/08/19 09:44:41;;;;;;;8.63;8.03;;;24.50;47.70;;;;;;5034589;28;20230;-66
2022/08/19 09:47:08;;;;;;;9.57;8.77;;;24.50;47.70;;;;;;5026291;28;20747;-64
2022/08/19 09:49:34;;;;;;;9.23;8.43;;;24.50;47.70;;;;;;5030129;28;20474;-64
2022/08/19 09:52:00;;;;;;;9.03;8.43;;;24.50;47.70;;;;;;5032397;28;20463;-65
2022/08/19 09:54:26;;;;;;;8.43;7.83;;;24.50;47.70;;;;;;5024308;28;20226;-65
2022/08/19 09:56:57;;;;;;;8.87;8.27;;;24.50;47.70;;;;;;5026646;28;20470;-64
2022/08/19 09:59:23;;;;;;;8.90;8.20;;;24.50;47.70;;;;;;5025892;28;22991;-64
2022/08/19 10:01:50;;;;;;;8.53;8.03;;;24.50;47.60;;;;;;5049611;28;20549;-64
2022/08/19 10:04:16;;;;;;;8.23;7.63;;;24.50;47.60;;;;;;5035333;28;21005;-65
2022/08/19 10:06:42;;;;;;;7.97;7.43;;;24.50;47.60;;;;;;5028279;28;20443;-64
2022/08/19 10:09:09;;;;;;;9.13;8.53;;;24.50;47.60;;;;;;5039671;28;20220;-64
2022/08/19 10:11:36;;;;;;;9.53;8.60;;;24.50;47.70;;;;;;5029453;28;20647;-68
2022/08/19 10:14:08;;;;;;;9.07;8.47;;;24.50;47.60;;;;;;5036623;28;20455;-65
2022/08/19 10:16:36;;;;;;;8.43;7.83;;;24.50;47.60;;;;;;5030136;28;21445;-65
2022/08/19 10:19:02;;;;;;;8.93;8.23;;;24.50;47.60;;;;;;5045842;28;20458;-68
2022/08/19 10:21:30;;;;;;;8.87;8.27;;;24.50;47.70;;;;;;5034969;28;20571;-64
2022/08/19 10:23:59;;;;;;;9.17;8.57;;;24.50;47.60;;;;;;5030876;28;20309;-65
2022/08/19 10:26:30;;;;;;;9.30;8.60;;;24.50;47.70;;;;;;5036314;28;20439;-66
2022/08/19 10:28:56;;;;;;;9.30;8.70;;;24.50;47.60;;;;;;5032226;28;20450;-68
2022/08/19 10:31:25;;;;;;;8.50;7.90;;;24.50;47.60;;;;;;5040555;28;20462;-67
2022/08/19 10:33:57;;;;;;;8.20;7.50;;;24.50;47.70;;;;;;5039158;28;20474;-67
2022/08/19 10:36:32;;;;;;;8.50;7.90;;;24.50;47.60;;;;;;5035679;28;20483;-70
2022/08/19 10:39:00;;;;;;;8.67;8.07;;;24.50;47.60;;;;;;5041582;28;21093;-68
2022/08/19 10:41:28;;;;;;;9.37;8.67;;;24.50;47.60;;;;;;5045450;28;20520;-67
2022/08/19 10:43:57;;;;;;;8.67;8.07;;;24.50;47.70;;;;;;5040915;28;21722;-67
2022/08/19 10:46:25;;;;;;;8.77;8.17;;;24.50;47.70;;;;;;5030456;28;20459;-66
2022/08/19 10:48:52;;;;;;;8.20;7.70;;;24.50;47.60;;;;;;5031878;28;20968;-67
2022/08/19 10:54:03;;;;;;;8.53;8.00;;;24.50;47.70;;;;;;5031730;28;21080;-68
2022/08/19 10:59:15;;;;;;;7.90;7.40;;;24.50;47.70;;;;;;5039736;28;20857;-73
2022/08/19 11:01:43;;;;;;;8.00;7.40;;;24.50;47.60;;;;;;5042783;28;21081;-73
2022/08/19 11:04:13;;;;;;;8.00;7.50;;;24.50;47.60;;;;;;5052081;28;20494;-67
2022/08/19 11:06:40;;;;;;;8.37;7.87;;;24.50;47.70;;;;;;5048332;28;20449;-68
2022/08/19 11:09:07;;;;;;;8.97;8.30;;;24.50;47.60;;;;;;5044876;28;20582;-69
2022/08/19 11:11:40;;;;;;;8.27;7.67;;;24.50;48.40;;;;;;5048923;28;20511;-67
2022/08/19 11:14:11;;;;;;;8.77;8.07;;;24.50;47.60;;;;;;5047316;28;20454;-71
2022/08/19 11:16:38;;;;;;;8.30;7.70;;;24.50;47.60;;;;;;5053990;28;20485;-67
2022/08/19 11:19:07;;;;;;;8.90;8.20;;;24.50;47.70;;;;;;5043820;28;20473;-72
2022/08/19 11:21:35;;;;;;;8.83;8.23;;;24.50;47.60;;;;;;5046075;28;20473;-73
2022/08/19 11:24:06;;;;;;;8.97;8.30;;;24.50;47.60;;;;;;5047923;28;20510;-69
2022/08/19 11:26:33;;;;;;;8.20;7.70;;;24.50;47.60;;;;;;5048945;28;20493;-67
2022/08/19 11:29:00;;;;;;;8.63;8.03;;;24.50;47.60;;;;;;5050160;28;20584;-73
2022/08/19 11:31:31;;;;;;;8.90;8.30;;;24.50;47.60;;;;;;5048054;28;20466;-70
2022/08/19 11:33:59;;;;;;;8.47;7.87;;;24.50;47.60;;;;;;5048809;28;20497;-66
2022/08/19 11:36:25;;;;;;;9.03;8.37;;;24.50;47.70;;;;;;5054816;28;20449;-67
2022/08/19 11:38:51;;;;;;;9.37;8.57;;;24.50;47.60;;;;;;5045501;28;20455;-71
2022/08/19 11:41:19;;;;;;;8.57;8.00;;;24.50;47.60;;;;;;5044676;28;20449;-69
2022/08/19 11:43:45;;;;;;;8.87;8.27;;;24.50;47.70;;;;;;5044888;28;20963;-69
2022/08/19 11:46:14;;;;;;;9.10;8.40;;;24.50;47.60;;;;;;5045099;28;20485;-72
2022/08/19 11:48:39;;;;;;;8.40;7.80;;;24.50;47.70;;;;;;5049736;28;20692;-73
2022/08/19 11:51:09;;;;;;;8.27;7.70;;;24.50;47.70;;;;;;5046478;28;20477;-69
2022/08/19 11:53:35;;;;;;;8.87;8.27;;;24.50;47.70;;;;;;5049573;28;20256;-67
2022/08/19 11:56:02;;;;;;;9.03;8.43;;;24.50;47.70;;;;;;5047167;28;20459;-68
2022/08/19 11:58:29;;;;;;;8.60;8.10;;;24.50;47.60;;;;;;5046272;28;20453;-70
2022/08/19 12:00:54;;;;;;;8.27;7.77;;;24.50;47.70;;;;;;5048504;28;20472;-67
2022/08/19 12:03:20;;;;;;;8.10;7.60;;;24.50;47.70;;;;;;5045266;28;20947;-65
2022/08/19 12:05:46;;;;;;;10.20;6.53;;;24.50;47.70;;;;;;5049351;28;20229;-71
2022/08/19 12:08:12;;;;;;;7.10;6.40;;;24.50;47.40;;;;;;5052915;28;20261;-67
2022/08/19 12:10:39;;;;;;;7.77;7.37;;;24.50;47.10;;;;;;5050201;28;21390;-67
2022/08/19 12:13:06;;;;;;;8.43;7.83;;;24.50;47.00;;;;;;5045659;28;21420;-71
2022/08/19 12:15:36;;;;;;;7.30;6.73;;;24.50;46.80;;;;;;5050032;28;20493;-66
2022/08/19 12:18:01;;;;;;;7.13;6.60;;;24.50;46.80;;;;;;5051279;28;20467;-66
2022/08/19 12:20:27;;;;;;;6.20;5.90;;;24.50;46.70;;;;;;5048461;28;20469;-73
2022/08/19 12:22:52;;;;;;;8.60;7.90;;;24.50;46.60;;;;;;5050980;28;20699;-66
2022/08/19 12:25:18;;;;;;;7.10;6.60;;;24.50;46.70;;;;;;5043716;28;20304;-66
2022/08/19 12:27:44;;;;;;;6.50;6.10;;;24.50;46.60;;;;;;5048426;28;20229;-66
2022/08/19 12:30:12;;;;;;;7.03;6.63;;;24.50;46.50;;;;;;5050179;28;20453;-72
2022/08/19 12:32:38;;;;;;;7.30;6.80;;;24.50;46.50;;;;;;5047205;28;20457;-68
2022/08/19 12:35:05;;;;;;;8.30;7.70;;;24.50;46.50;;;;;;5056021;28;20986;-68
2022/08/19 12:37:32;;;;;;;7.70;7.30;;;24.50;46.60;;;;;;5047193;28;20899;-72
2022/08/19 12:39:57;;;;;;;6.93;6.53;;;24.50;46.60;;;;;;5044835;28;20557;-66
2022/08/19 12:42:23;;;;;;;8.13;7.63;;;24.50;46.70;;;;;;5044955;28;20449;-66
2022/08/19 12:44:51;;;;;;;8.00;7.40;;;24.50;46.70;;;;;;5048924;28;20320;-72
2022/08/19 12:47:17;;;;;;;7.80;7.30;;;24.50;46.80;;;;;;5027353;28;20444;-66
2022/08/19 12:49:43;;;;;;;8.00;7.50;;;24.50;46.80;;;;;;5033132;28;20438;-66
2022/08/19 12:52:10;;;;;;;7.67;7.17;;;24.50;46.90;;;;;;5040988;28;20692;-68
2022/08/19 12:54:36;;;;;;;7.73;7.23;;;24.50;47.00;;;;;;5046458;28;20462;-75
2022/08/19 12:57:07;;;;;;;7.80;7.30;;;24.50;47.00;;;;;;5046917;28;20471;-74
2022/08/19 12:59:37;;;;;;;8.23;7.73;;;24.50;47.00;;;;;;5046551;28;20466;-67
2022/08/19 13:02:07;;;;;;;8.37;7.87;;;24.50;47.00;;;;;;5047224;28;20960;-71
2022/08/19 13:04:40;;;;;;;8.40;7.90;;;24.50;47.10;;;;;;5047059;28;20465;-68
2022/08/19 13:07:07;;;;;;;8.30;7.70;;;24.50;47.10;;;;;;5045710;28;20515;-69
2022/08/19 13:09:33;;;;;;;7.93;7.43;;;24.50;47.20;;;;;;5040083;28;20537;-66